createdAt,value
2017-12-04T00:00:54.644Z,23.57
2017-12-04T00:03:20.854Z,24.63
2017-12-04T00:05:47.028Z,24.90
2017-12-04T00:08:13.173Z,24.00
2017-12-04T00:10:39.292Z,23.50
2017-12-04T00:13:05.429Z,24.17
2017-12-04T00:15:31.577Z,24.93
2017-12-04T00:17:57.697Z,22.60
2017-12-04T00:20:23.803Z,26.00
2017-12-04T00:22:49.964Z,24.50
2017-12-04T00:25:16.074Z,26.13
2017-12-04T00:27:42.193Z,30.20
2017-12-04T00:30:09.130Z,30.73
2017-12-04T00:32:35.196Z,25.03
2017-12-04T00:35:01.365Z,24.97
2017-12-04T00:37:27.446Z,26.70
2017-12-04T00:39:53.611Z,25.53
2017-12-04T00:42:19.735Z,26.50
2017-12-04T00:44:47.702Z,26.67
2017-12-04T00:47:15.573Z,25.70
2017-12-04T00:49:43.744Z,24.33
2017-12-04T00:52:11.621Z,26.27
2017-12-04T00:54:39.527Z,24.43
2017-12-04T00:57:05.764Z,25.70
2017-12-04T00:59:31.962Z,25.30
2017-12-04T01:01:58.086Z,24.40
2017-12-04T01:04:24.236Z,25.80
2017-12-04T01:06:50.359Z,23.43
2017-12-04T01:09:16.492Z,25.87
2017-12-04T01:11:42.698Z,26.50
2017-12-04T01:14:08.810Z,24.80
2017-12-04T01:16:34.906Z,26.13
2017-12-04T01:19:02.103Z,29.33
2017-12-04T01:21:28.317Z,27.23
2017-12-04T01:23:54.434Z,27.50
2017-12-04T01:26:22.368Z,28.60
2017-12-04T01:28:48.597Z,27.63
2017-12-04T01:31:15.386Z,28.37
2017-12-04T01:33:41.692Z,29.80
2017-12-04T01:36:07.828Z,27.00
2017-12-04T01:38:33.942Z,28.37
2017-12-04T01:41:01.004Z,26.33
2017-12-04T01:43:27.160Z,26.87
2017-12-04T01:45:53.292Z,24.90
2017-12-04T01:48:19.422Z,27.30
2017-12-04T01:50:45.550Z,27.53
2017-12-04T01:53:11.989Z,27.40
2017-12-04T01:55:38.154Z,29.60
2017-12-04T01:58:04.251Z,27.07
2017-12-04T02:00:30.593Z,29.20
2017-12-04T02:02:57.481Z,29.43
2017-12-04T02:05:23.711Z,28.80
2017-12-04T02:07:50.216Z,27.87
2017-12-04T02:10:16.779Z,27.43
2017-12-04T02:12:43.232Z,24.60
2017-12-04T02:15:09.534Z,27.07
2017-12-04T02:17:35.839Z,24.40
2017-12-04T02:20:02.992Z,23.63
2017-12-04T02:22:29.202Z,22.97
2017-12-04T02:24:55.332Z,24.90
2017-12-04T02:27:21.435Z,22.33
2017-12-04T02:29:47.549Z,22.53
2017-12-04T02:32:13.817Z,21.17
2017-12-04T02:34:40.034Z,22.40
2017-12-04T02:37:06.962Z,22.37
2017-12-04T02:39:33.134Z,20.87
2017-12-04T02:41:59.238Z,23.87
2017-12-04T02:44:25.329Z,22.97
2017-12-04T02:46:51.454Z,21.03
2017-12-04T02:49:17.546Z,21.93
2017-12-04T02:51:43.690Z,22.40
2017-12-04T02:54:09.846Z,22.90
2017-12-04T02:56:35.959Z,22.20
2017-12-04T02:59:02.107Z,23.07
2017-12-04T03:01:28.212Z,23.27
2017-12-04T03:03:54.368Z,23.10
2017-12-04T03:06:20.454Z,22.57
2017-12-04T03:08:46.604Z,23.23
2017-12-04T03:11:12.762Z,23.50
2017-12-04T03:13:38.890Z,22.47
2017-12-04T03:16:05.000Z,23.70
2017-12-04T03:18:31.840Z,24.43
2017-12-04T03:20:58.714Z,20.93
2017-12-04T03:23:24.825Z,20.10
2017-12-04T03:25:50.996Z,21.17
2017-12-04T03:28:17.151Z,20.60
2017-12-04T03:30:43.304Z,18.97
2017-12-04T03:33:09.458Z,20.10
2017-12-04T03:35:36.306Z,20.17
2017-12-04T03:38:02.465Z,20.10
2017-12-04T03:40:28.590Z,19.80
2017-12-04T03:42:55.438Z,18.70
2017-12-04T03:45:22.346Z,18.60
2017-12-04T03:47:48.491Z,19.80
2017-12-04T03:50:14.590Z,18.43
2017-12-04T03:52:40.709Z,18.37
2017-12-04T03:55:07.552Z,18.90
2017-12-04T03:57:33.640Z,17.80
2017-12-04T03:59:59.774Z,20.43
2017-12-04T04:02:25.864Z,19.20
2017-12-04T04:04:51.966Z,18.77
2017-12-04T04:07:18.087Z,19.23
2017-12-04T04:09:44.228Z,18.20
2017-12-04T04:12:10.317Z,17.47
2017-12-04T04:14:36.416Z,19.20
2017-12-04T04:17:02.532Z,17.80
2017-12-04T04:19:28.659Z,17.13
2017-12-04T04:21:54.798Z,16.57
2017-12-04T04:24:20.966Z,16.13
2017-12-04T04:26:47.057Z,16.13
2017-12-04T04:29:13.941Z,15.50
2017-12-04T04:31:40.063Z,15.80
2017-12-04T04:34:06.233Z,15.97
2017-12-04T04:36:32.366Z,15.03
2017-12-04T04:38:58.470Z,14.37
2017-12-04T04:41:25.316Z,12.87
2017-12-04T04:43:51.461Z,12.53
2017-12-04T04:46:17.635Z,13.50
2017-12-04T04:48:43.764Z,13.23
2017-12-04T04:51:09.899Z,11.87
2017-12-04T04:53:36.034Z,11.90
2017-12-04T04:56:02.185Z,11.40
2017-12-04T04:58:28.319Z,11.60
2017-12-04T05:00:54.432Z,10.17
2017-12-04T05:03:21.341Z,10.90
2017-12-04T05:05:47.568Z,10.87
2017-12-04T05:08:13.656Z,10.03
2017-12-04T05:10:39.802Z,10.70
2017-12-04T05:13:06.682Z,9.80
2017-12-04T05:15:32.789Z,10.07
2017-12-04T05:17:58.956Z,11.17
2017-12-04T05:20:25.093Z,10.00
2017-12-04T05:22:51.203Z,9.17
2017-12-04T05:25:18.085Z,9.30
2017-12-04T05:27:44.230Z,8.90
2017-12-04T05:30:10.399Z,8.80
2017-12-04T05:32:36.604Z,8.47
2017-12-04T05:35:02.761Z,9.23
2017-12-04T05:37:28.881Z,8.30
2017-12-04T05:39:55.053Z,9.37
2017-12-04T05:42:21.190Z,8.47
2017-12-04T05:44:47.370Z,8.00
2017-12-04T05:47:13.565Z,9.20
2017-12-04T05:49:39.661Z,7.87
2017-12-04T05:52:06.533Z,8.53
2017-12-04T05:54:32.693Z,9.03
2017-12-04T05:56:58.802Z,7.90
2017-12-04T05:59:25.944Z,7.43
2017-12-04T06:01:52.855Z,7.63
2017-12-04T06:04:18.969Z,8.27
2017-12-04T06:06:45.066Z,7.13
2017-12-04T06:09:11.212Z,7.40
2017-12-04T06:11:38.105Z,7.60
2017-12-04T06:14:04.221Z,6.70
2017-12-04T06:16:31.100Z,6.80
2017-12-04T06:18:57.215Z,6.00
2017-12-04T06:21:23.305Z,6.60
2017-12-04T06:23:49.446Z,5.60
2017-12-04T06:26:15.557Z,5.50
2017-12-04T06:28:41.730Z,6.30
2017-12-04T06:31:07.881Z,5.57
2017-12-04T06:33:34.008Z,6.73
2017-12-04T06:36:00.178Z,6.27
2017-12-04T06:38:27.098Z,6.73
2017-12-04T06:40:53.196Z,6.60
2017-12-04T06:43:20.265Z,5.37
2017-12-04T06:45:46.396Z,5.13
2017-12-04T06:48:12.786Z,4.30
2017-12-04T06:50:38.914Z,4.40
2017-12-04T06:53:05.076Z,4.23
2017-12-04T06:55:31.295Z,3.97
2017-12-04T06:57:57.399Z,3.93
2017-12-04T07:00:23.622Z,4.53
2017-12-04T07:02:49.714Z,3.90
2017-12-04T07:05:15.845Z,8.83
2017-12-04T07:07:41.992Z,4.57
2017-12-04T07:10:08.089Z,3.33
2017-12-04T07:12:34.193Z,3.27
2017-12-04T07:15:00.387Z,3.53
2017-12-04T07:17:26.512Z,3.60
2017-12-04T07:19:52.641Z,4.40
2017-12-04T07:22:18.835Z,4.87
2017-12-04T07:24:44.930Z,3.70
2017-12-04T07:27:11.036Z,2.63
2017-12-04T07:29:37.169Z,3.40
2017-12-04T07:32:03.449Z,4.30
2017-12-04T07:34:29.567Z,3.60
2017-12-04T07:36:55.745Z,3.77
2017-12-04T07:39:21.859Z,3.23
2017-12-04T07:41:47.995Z,3.40
2017-12-04T07:44:15.560Z,3.30
2017-12-04T07:46:41.741Z,4.00
2017-12-04T07:49:07.862Z,3.70
2017-12-04T07:51:34.050Z,3.70
2017-12-04T07:54:01.023Z,3.57
2017-12-04T07:56:27.151Z,3.27
2017-12-04T07:58:54.069Z,3.27
2017-12-04T08:01:20.197Z,3.10
2017-12-04T08:03:46.616Z,3.40
2017-12-04T08:06:12.785Z,4.53
2017-12-04T08:08:38.888Z,3.70
2017-12-04T08:11:05.066Z,2.10
2017-12-04T08:13:31.200Z,2.67
2017-12-04T08:15:57.397Z,3.30
2017-12-04T08:18:23.489Z,3.10
2017-12-04T08:20:49.647Z,3.30
2017-12-04T08:23:15.774Z,2.67
2017-12-04T08:25:41.893Z,3.10
2017-12-04T08:28:08.022Z,3.30
2017-12-04T08:30:34.179Z,3.27
2017-12-04T08:33:00.378Z,3.37
2017-12-04T08:35:26.537Z,2.90
2017-12-04T08:37:52.718Z,3.90
2017-12-04T08:40:18.886Z,3.83
2017-12-04T08:42:45.015Z,3.43
2017-12-04T08:45:11.945Z,3.77
2017-12-04T08:47:38.057Z,4.10
2017-12-04T08:50:04.217Z,3.70
2017-12-04T08:52:30.373Z,4.07
2017-12-04T08:54:57.212Z,2.73
2017-12-04T08:57:23.435Z,2.93
2017-12-04T08:59:49.645Z,4.10
2017-12-04T09:02:15.749Z,3.30
2017-12-04T09:04:42.617Z,2.87
2017-12-04T09:07:08.734Z,3.83
2017-12-04T09:09:35.661Z,3.37
2017-12-04T09:12:01.800Z,4.10
2017-12-04T09:14:27.936Z,3.90
2017-12-04T09:16:54.093Z,3.30
2017-12-04T09:19:20.248Z,3.30
2017-12-04T09:21:46.356Z,4.10
2017-12-04T09:24:12.465Z,3.10
2017-12-04T09:26:38.608Z,3.40
2017-12-04T09:29:04.750Z,2.80
2017-12-04T09:31:31.756Z,3.40
2017-12-04T09:33:59.688Z,4.10
2017-12-04T09:36:27.556Z,3.40
2017-12-04T09:38:55.464Z,3.20
2017-12-04T09:41:23.387Z,3.93
2017-12-04T09:43:51.336Z,3.40
2017-12-04T09:46:20.005Z,3.30
2017-12-04T09:48:47.937Z,3.70
2017-12-04T09:51:16.844Z,2.50
2017-12-04T09:53:44.759Z,1.67
2017-12-04T09:56:12.685Z,2.10
2017-12-04T09:58:40.590Z,2.30
2017-12-04T10:01:08.581Z,1.43
2017-12-04T10:03:36.565Z,2.20
2017-12-04T10:06:04.455Z,2.03
2017-12-04T10:08:32.400Z,1.43
2017-12-04T10:11:00.287Z,1.60
2017-12-04T10:13:28.158Z,1.83
2017-12-04T10:15:56.118Z,2.80
2017-12-04T10:18:24.049Z,3.90
2017-12-04T10:20:52.849Z,4.63
2017-12-04T10:23:20.716Z,3.50
2017-12-04T10:25:48.619Z,3.30
2017-12-04T10:28:16.576Z,3.87
2017-12-04T10:30:44.550Z,2.90
2017-12-04T10:33:12.432Z,2.73
2017-12-04T10:35:40.301Z,2.17
2017-12-04T10:38:08.185Z,2.33
2017-12-04T10:40:36.078Z,4.90
2017-12-04T10:43:04.050Z,2.53
2017-12-04T10:45:31.957Z,2.80
2017-12-04T10:47:59.832Z,3.03
2017-12-04T10:50:27.761Z,4.10
2017-12-04T10:52:55.707Z,5.27
2017-12-04T10:55:23.597Z,3.27
2017-12-04T10:57:51.493Z,4.17
2017-12-04T11:00:19.508Z,3.60
2017-12-04T11:02:47.368Z,4.70
2017-12-04T11:05:15.291Z,6.00
2017-12-04T11:07:43.154Z,5.63
2017-12-04T11:10:11.033Z,5.33
2017-12-04T11:12:38.909Z,4.47
2017-12-04T11:15:06.866Z,4.57
2017-12-04T11:17:34.748Z,5.37
2017-12-04T11:20:02.645Z,4.10
2017-12-04T11:22:30.530Z,3.50
2017-12-04T11:24:58.413Z,4.40
2017-12-04T11:27:26.711Z,4.30
2017-12-04T11:29:54.657Z,6.00
2017-12-04T11:32:22.578Z,4.10
2017-12-04T11:34:50.545Z,4.27
2017-12-04T11:37:18.388Z,3.20
2017-12-04T11:39:46.646Z,4.83
2017-12-04T11:42:14.532Z,4.10
2017-12-04T11:44:42.402Z,3.17
2017-12-04T11:47:10.265Z,3.37
2017-12-04T11:49:38.162Z,3.43
2017-12-04T11:52:06.069Z,3.63
2017-12-04T11:54:34.079Z,3.23
2017-12-04T11:57:01.965Z,3.40
2017-12-04T11:59:29.874Z,3.20
2017-12-04T12:01:57.996Z,4.03
2017-12-04T12:04:25.886Z,3.90
2017-12-04T12:06:53.826Z,3.60
2017-12-04T12:09:21.690Z,3.40
2017-12-04T12:11:49.657Z,3.60
2017-12-04T12:14:17.529Z,2.93
2017-12-04T12:16:45.393Z,3.60
2017-12-04T12:19:13.313Z,4.50
2017-12-04T12:21:41.208Z,2.53
2017-12-04T12:24:09.064Z,2.77
2017-12-04T12:26:36.982Z,3.57
2017-12-04T12:29:04.970Z,1.87
2017-12-04T12:31:32.850Z,2.23
2017-12-04T12:34:00.808Z,3.57
2017-12-04T12:36:29.048Z,3.67
2017-12-04T12:38:57.005Z,2.50
2017-12-04T12:41:25.782Z,2.80
2017-12-04T12:43:53.668Z,4.20
2017-12-04T12:46:21.537Z,2.63
2017-12-04T12:48:49.470Z,4.17
2017-12-04T12:51:17.328Z,2.90
2017-12-04T12:53:45.177Z,2.23
2017-12-04T12:56:13.060Z,2.57
2017-12-04T12:58:40.959Z,3.27
2017-12-04T13:01:08.826Z,2.63
2017-12-04T13:03:36.713Z,2.50
2017-12-04T13:06:04.584Z,3.27
2017-12-04T13:08:32.459Z,4.00
2017-12-04T13:11:00.340Z,4.23
2017-12-04T13:13:28.254Z,3.60
2017-12-04T13:15:56.145Z,3.90
2017-12-04T13:18:24.021Z,3.80
2017-12-04T13:20:51.904Z,3.53
2017-12-04T13:23:19.780Z,5.03
2017-12-04T13:25:47.681Z,3.87
2017-12-04T13:28:15.541Z,4.27
2017-12-04T13:30:43.448Z,15.70
2017-12-04T13:33:17.420Z,3.47
2017-12-04T13:35:51.486Z,3.33
2017-12-04T13:38:19.396Z,3.17
2017-12-04T13:40:48.455Z,2.90
2017-12-04T13:43:16.474Z,3.37
2017-12-04T13:45:44.394Z,2.50
2017-12-04T13:48:12.268Z,2.87
2017-12-04T13:50:40.208Z,3.90
2017-12-04T13:53:08.115Z,3.00
2017-12-04T13:55:36.009Z,2.90
2017-12-04T13:58:03.901Z,2.07
2017-12-04T14:00:31.820Z,2.20
2017-12-04T14:02:59.779Z,3.37
2017-12-04T14:05:27.683Z,2.10
2017-12-04T14:07:56.434Z,2.70
2017-12-04T14:10:25.172Z,2.97
2017-12-04T14:12:53.016Z,2.50
2017-12-04T14:15:20.924Z,2.60
2017-12-04T14:17:48.948Z,2.53
2017-12-04T14:20:16.865Z,2.17
2017-12-04T14:22:44.785Z,2.20
2017-12-04T14:25:12.669Z,3.27
2017-12-04T14:27:40.533Z,3.23
2017-12-04T14:30:08.441Z,2.63
2017-12-04T14:32:36.302Z,2.80
2017-12-04T14:35:04.216Z,2.57
2017-12-04T14:37:32.157Z,3.40
2017-12-04T14:40:00.106Z,3.60
2017-12-04T14:42:28.017Z,2.90
2017-12-04T14:44:55.895Z,2.80
2017-12-04T14:47:24.105Z,2.60
2017-12-04T14:49:51.949Z,2.80
2017-12-04T14:52:19.857Z,2.70
2017-12-04T14:54:48.568Z,2.93
2017-12-04T14:57:16.441Z,2.67
2017-12-04T14:59:44.642Z,2.97
2017-12-04T15:02:12.549Z,3.77
2017-12-04T15:04:40.504Z,4.90
2017-12-04T15:07:08.417Z,4.40
2017-12-04T15:09:37.920Z,3.00
2017-12-04T15:12:05.830Z,4.80
2017-12-04T15:14:33.732Z,2.80
2017-12-04T15:17:04.580Z,2.73
2017-12-04T15:19:32.449Z,2.90
2017-12-04T15:22:00.386Z,3.17
2017-12-04T15:24:28.281Z,2.73
2017-12-04T15:26:56.132Z,3.80
2017-12-04T15:31:58.332Z,3.10
2017-12-04T15:34:26.229Z,2.77
2017-12-04T15:36:54.069Z,3.03
2017-12-04T15:39:21.969Z,2.70
2017-12-04T15:41:49.853Z,2.90
2017-12-04T15:44:17.712Z,2.80
2017-12-04T15:46:45.634Z,2.63
2017-12-04T15:49:13.521Z,2.63
2017-12-04T15:51:41.384Z,3.27
2017-12-04T15:54:09.236Z,3.07
2017-12-04T15:56:37.125Z,3.70
2017-12-04T15:59:05.010Z,3.77
2017-12-04T16:01:32.958Z,2.97
2017-12-04T16:04:01.982Z,2.10
2017-12-04T16:06:30.194Z,3.10
2017-12-04T16:08:58.178Z,2.30
2017-12-04T16:11:26.289Z,2.27
2017-12-04T16:13:54.264Z,2.63
2017-12-04T16:16:22.987Z,2.20
2017-12-04T16:18:50.995Z,2.93
2017-12-04T16:21:21.279Z,3.40
2017-12-04T16:23:52.207Z,2.30
2017-12-04T16:26:20.155Z,3.13
2017-12-04T16:28:48.041Z,3.47
2017-12-04T16:31:17.140Z,6.10
2017-12-04T16:33:45.011Z,4.80
2017-12-04T16:36:12.897Z,3.83
2017-12-04T16:38:40.761Z,6.23
2017-12-04T16:41:08.732Z,3.20
2017-12-04T16:43:36.608Z,6.00
2017-12-04T16:46:04.917Z,4.37
2017-12-04T16:48:32.789Z,3.33
2017-12-04T16:51:00.681Z,3.40
2017-12-04T16:53:28.581Z,3.17
2017-12-04T16:55:56.460Z,3.07
2017-12-04T16:58:24.338Z,3.27
2017-12-04T17:00:52.177Z,2.80
2017-12-04T17:03:20.081Z,3.03
2017-12-04T17:05:47.975Z,2.70
2017-12-04T17:08:15.901Z,3.30
2017-12-04T17:10:43.792Z,3.33
2017-12-04T17:13:11.702Z,3.50
2017-12-04T17:15:39.620Z,3.57
2017-12-04T17:18:07.463Z,3.63
2017-12-04T17:20:35.357Z,3.27
2017-12-04T17:23:03.209Z,4.10
2017-12-04T17:25:31.227Z,3.43
2017-12-04T17:27:59.160Z,3.00
2017-12-04T17:30:27.108Z,3.67
2017-12-04T17:32:54.985Z,3.03
2017-12-04T17:35:22.874Z,3.53
2017-12-04T17:37:50.813Z,4.97
2017-12-04T17:40:18.680Z,4.07
2017-12-04T17:42:46.553Z,4.13
2017-12-04T17:45:14.460Z,4.00
2017-12-04T17:47:42.313Z,3.90
2017-12-04T17:50:10.566Z,4.50
2017-12-04T17:52:38.459Z,3.03
2017-12-04T17:55:06.338Z,3.87
2017-12-04T17:57:34.255Z,3.50
2017-12-04T18:00:02.115Z,4.30
2017-12-04T18:02:29.999Z,5.97
2017-12-04T18:04:57.980Z,4.70
2017-12-04T18:07:25.891Z,6.20
2017-12-04T18:09:53.732Z,5.83
2017-12-04T18:12:21.615Z,4.73
2017-12-04T18:14:49.474Z,5.93
2017-12-04T18:17:17.360Z,4.33
2017-12-04T18:19:45.225Z,9.20
2017-12-04T18:22:13.088Z,5.80
2017-12-04T18:24:41.018Z,9.93
2017-12-04T18:27:08.934Z,4.13
2017-12-04T18:29:38.898Z,6.70
2017-12-04T18:32:06.800Z,7.80
2017-12-04T18:34:34.689Z,6.60
2017-12-04T18:37:02.558Z,10.73
2017-12-04T18:39:30.416Z,9.03
2017-12-04T18:41:58.321Z,6.20
2017-12-04T18:44:27.604Z,7.43
2017-12-04T18:46:55.633Z,9.27
2017-12-04T18:49:23.515Z,6.73
2017-12-04T18:51:51.375Z,5.63
2017-12-04T18:54:19.224Z,6.63
2017-12-04T18:56:47.156Z,4.00
2017-12-04T18:59:15.263Z,5.97
2017-12-04T19:01:43.121Z,8.30
2017-12-04T19:04:11.462Z,8.63
2017-12-04T19:06:39.309Z,6.57
2017-12-04T19:09:07.177Z,5.20
2017-12-04T19:11:35.061Z,4.57
2017-12-04T19:14:03.577Z,5.97
2017-12-04T19:16:31.431Z,5.73
2017-12-04T19:18:59.345Z,6.20
2017-12-04T19:21:27.323Z,7.80
2017-12-04T19:23:55.194Z,5.20
2017-12-04T19:26:23.105Z,3.50
2017-12-04T19:28:51.040Z,4.33
2017-12-04T19:31:18.906Z,4.13
2017-12-04T19:33:47.047Z,3.23
2017-12-04T19:36:14.990Z,4.37
2017-12-04T19:38:42.833Z,4.23
2017-12-04T19:41:10.873Z,4.13
2017-12-04T19:43:38.729Z,4.40
2017-12-04T19:46:06.594Z,3.60
2017-12-04T19:48:34.497Z,3.13
2017-12-04T19:51:02.376Z,4.20
2017-12-04T19:53:30.221Z,3.50
2017-12-04T19:55:58.149Z,3.97
2017-12-04T19:58:26.016Z,5.47
2017-12-04T20:00:53.868Z,4.30
2017-12-04T20:03:21.766Z,3.50
2017-12-04T20:05:49.777Z,4.07
2017-12-04T20:08:17.686Z,4.83
2017-12-04T20:10:45.564Z,5.10
2017-12-04T20:13:13.502Z,4.20
2017-12-04T20:15:41.623Z,4.20
2017-12-04T20:18:09.524Z,3.63
2017-12-04T20:20:37.452Z,4.70
2017-12-04T20:23:05.299Z,4.10
2017-12-04T20:25:33.702Z,4.87
2017-12-04T20:28:01.651Z,3.40
2017-12-04T20:30:29.585Z,5.07
2017-12-04T20:32:57.518Z,4.63
2017-12-04T20:35:25.447Z,5.30
2017-12-04T20:37:53.314Z,4.50
2017-12-04T20:40:21.181Z,4.27
2017-12-04T20:42:49.132Z,4.23
2017-12-04T20:45:19.274Z,7.63
2017-12-04T20:47:48.428Z,4.10
2017-12-04T20:50:16.561Z,3.63
2017-12-04T20:52:44.869Z,4.00
2017-12-04T20:55:12.760Z,3.27
2017-12-04T20:57:40.700Z,2.67
2017-12-04T21:00:08.577Z,3.10
2017-12-04T21:02:36.469Z,3.30
2017-12-04T21:05:04.327Z,2.80
2017-12-04T21:07:38.538Z,2.80
2017-12-04T21:10:28.504Z,3.70
2017-12-04T21:13:02.471Z,3.40
2017-12-04T21:15:30.405Z,4.53
2017-12-04T21:17:58.275Z,3.80
2017-12-04T21:20:26.154Z,3.03
2017-12-04T21:22:54.045Z,2.83
2017-12-04T21:25:21.906Z,3.93
2017-12-04T21:27:49.788Z,4.30
2017-12-04T21:30:17.687Z,2.77
2017-12-04T21:32:45.677Z,4.23
2017-12-04T21:35:13.542Z,4.33
2017-12-04T21:37:41.454Z,3.90
2017-12-04T21:40:09.405Z,4.20
2017-12-04T21:42:37.667Z,6.07
2017-12-04T21:45:05.604Z,3.83
2017-12-04T21:47:33.776Z,4.53
2017-12-04T21:50:01.839Z,3.50
2017-12-04T21:52:30.115Z,3.37
2017-12-04T21:54:58.174Z,4.20
2017-12-04T21:57:26.115Z,3.30
2017-12-04T21:59:53.987Z,4.80
2017-12-04T22:02:21.951Z,2.97
2017-12-04T22:04:52.838Z,4.83
2017-12-04T22:07:20.762Z,5.70
2017-12-04T22:09:48.676Z,8.13
2017-12-04T22:12:16.652Z,4.40
2017-12-04T22:14:44.636Z,3.70
2017-12-04T22:17:12.844Z,3.40
2017-12-04T22:19:40.740Z,3.90
2017-12-04T22:22:08.678Z,3.73
2017-12-04T22:24:36.698Z,3.73
2017-12-04T22:27:04.602Z,5.30
2017-12-04T22:29:32.490Z,4.13
2017-12-04T22:32:00.433Z,3.80
2017-12-04T22:34:28.387Z,4.13
2017-12-04T22:36:56.224Z,3.60
2017-12-04T22:39:24.120Z,4.00
2017-12-04T22:41:51.967Z,3.70
2017-12-04T22:44:19.862Z,4.20
2017-12-04T22:46:47.758Z,3.93
2017-12-04T22:49:15.683Z,4.90
2017-12-04T22:51:43.547Z,3.80
2017-12-04T22:54:11.444Z,3.97
2017-12-04T22:56:39.374Z,4.50
2017-12-04T22:59:07.261Z,3.97
2017-12-04T23:01:35.257Z,5.30
2017-12-04T23:04:03.164Z,4.50
2017-12-04T23:06:31.105Z,3.70
2017-12-04T23:08:59.181Z,3.80
2017-12-04T23:11:27.165Z,3.63
2017-12-04T23:13:55.040Z,3.50
2017-12-04T23:16:22.905Z,3.50
2017-12-04T23:18:50.795Z,5.90
2017-12-04T23:21:18.824Z,4.30
2017-12-04T23:23:46.770Z,4.93
2017-12-04T23:26:14.656Z,4.20
2017-12-04T23:28:42.517Z,3.43
2017-12-04T23:31:10.519Z,3.30
2017-12-04T23:33:38.426Z,4.27
2017-12-04T23:36:06.372Z,5.47
2017-12-04T23:38:34.211Z,4.87
2017-12-04T23:41:02.164Z,3.93
2017-12-04T23:43:30.277Z,7.10
2017-12-04T23:45:58.164Z,3.60
2017-12-04T23:48:26.130Z,3.27
2017-12-04T23:50:54.512Z,3.83
2017-12-04T23:53:22.381Z,3.03
2017-12-04T23:55:50.253Z,3.60
2017-12-04T23:58:18.145Z,3.60
